sensor_id;sensor_type;location;lat;lon;timestamp;pressure;altitude;pressure_sealevel;temperature;humidity
41624;BME280;27319;50.306;18.926;2023-12-20T00:02:55;97999.00;;;5.32;72.54
41624;BME280;27319;50.306;18.926;2023-12-20T00:06:55;97975.28;;;5.37;71.68
41624;BME280;27319;50.306;18.926;2023-12-20T00:10:16;97955.81;;;5.18;76.06
41624;BME280;27319;50.306;18.926;2023-12-20T00:14:17;97958.88;;;5.20;73.16
41624;BME280;27319;50.306;18.926;2023-12-20T00:18:18;97945.78;;;5.14;73.72
41624;BME280;27319;50.306;18.926;2023-12-20T00:22:19;97952.41;;;4.98;76.34
41624;BME280;27319;50.306;18.926;2023-12-20T00:26:19;97936.25;;;4.94;75.90
41624;BME280;27319;50.306;18.926;2023-12-20T00:30:20;97937.72;;;4.92;77.35
41624;BME280;27319;50.306;18.926;2023-12-20T00:34:21;97952.91;;;4.84;78.88
41624;BME280;27319;50.306;18.926;2023-12-20T00:38:22;97945.31;;;4.86;78.97
41624;BME280;27319;50.306;18.926;2023-12-20T00:42:23;97958.41;;;4.91;78.21
41624;BME280;27319;50.306;18.926;2023-12-20T00:46:23;97928.19;;;4.71;80.48
41624;BME280;27319;50.306;18.926;2023-12-20T00:50:24;97958.38;;;4.88;77.40
41624;BME280;27319;50.306;18.926;2023-12-20T00:54:25;97914.41;;;4.73;79.12
41624;BME280;27319;50.306;18.926;2023-12-20T00:58:26;97910.59;;;4.74;78.55
41624;BME280;27319;50.306;18.926;2023-12-20T01:02:27;97911.31;;;4.71;80.62
41624;BME280;27319;50.306;18.926;2023-12-20T01:06:28;97875.94;;;4.62;80.69
41624;BME280;27319;50.306;18.926;2023-12-20T01:10:28;97887.47;;;4.66;80.30
41624;BME280;27319;50.306;18.926;2023-12-20T01:14:29;97899.22;;;4.81;77.11
41624;BME280;27319;50.306;18.926;2023-12-20T01:18:30;97878.31;;;4.67;77.82
41624;BME280;27319;50.306;18.926;2023-12-20T01:22:30;97859.38;;;4.56;80.64
41624;BME280;27319;50.306;18.926;2023-12-20T01:26:31;97868.84;;;4.99;73.85
41624;BME280;27319;50.306;18.926;2023-12-20T01:30:32;97842.88;;;4.81;78.06
41624;BME280;27319;50.306;18.926;2023-12-20T01:34:33;97828.53;;;4.69;77.25
41624;BME280;27319;50.306;18.926;2023-12-20T01:38:33;97868.06;;;4.99;69.41
41624;BME280;27319;50.306;18.926;2023-12-20T01:42:34;97854.72;;;5.02;69.13
41624;BME280;27319;50.306;18.926;2023-12-20T01:46:36;97885.00;;;5.03;69.37
41624;BME280;27319;50.306;18.926;2023-12-20T01:50:36;97878.22;;;5.09;67.47
41624;BME280;27319;50.306;18.926;2023-12-20T01:54:37;97856.63;;;5.02;67.85
41624;BME280;27319;50.306;18.926;2023-12-20T01:58:39;97857.81;;;5.04;67.88
41624;BME280;27319;50.306;18.926;2023-12-20T02:02:39;97852.63;;;4.92;70.22
41624;BME280;27319;50.306;18.926;2023-12-20T02:06:39;97862.13;;;5.12;67.19
41624;BME280;27319;50.306;18.926;2023-12-20T02:10:40;97824.00;;;5.00;72.12
41624;BME280;27319;50.306;18.926;2023-12-20T02:14:41;97826.75;;;5.03;70.85
41624;BME280;27319;50.306;18.926;2023-12-20T02:18:44;97855.28;;;5.15;64.98
41624;BME280;27319;50.306;18.926;2023-12-20T02:22:43;97849.44;;;4.83;72.99
41624;BME280;27319;50.306;18.926;2023-12-20T02:26:43;97842.22;;;5.13;67.08
41624;BME280;27319;50.306;18.926;2023-12-20T02:30:44;97828.91;;;4.94;72.46
41624;BME280;27319;50.306;18.926;2023-12-20T02:34:46;97838.28;;;4.81;72.71
41624;BME280;27319;50.306;18.926;2023-12-20T02:38:45;97829.50;;;4.84;69.60
41624;BME280;27319;50.306;18.926;2023-12-20T02:42:46;97833.38;;;4.87;71.41
41624;BME280;27319;50.306;18.926;2023-12-20T02:46:47;97825.44;;;4.94;69.59
41624;BME280;27319;50.306;18.926;2023-12-20T02:50:48;97821.09;;;4.86;70.48
41624;BME280;27319;50.306;18.926;2023-12-20T02:54:48;97815.50;;;4.94;67.46
41624;BME280;27319;50.306;18.926;2023-12-20T02:58:49;97828.28;;;4.78;70.76
41624;BME280;27319;50.306;18.926;2023-12-20T03:02:50;97823.19;;;4.69;70.16
41624;BME280;27319;50.306;18.926;2023-12-20T03:06:51;97824.69;;;4.70;71.86
41624;BME280;27319;50.306;18.926;2023-12-20T03:10:52;97835.44;;;4.70;72.69
41624;BME280;27319;50.306;18.926;2023-12-20T03:14:52;97838.97;;;4.74;73.05
41624;BME280;27319;50.306;18.926;2023-12-20T03:18:53;97828.44;;;4.62;73.03
41624;BME280;27319;50.306;18.926;2023-12-20T03:22:54;97818.41;;;4.59;73.20
41624;BME280;27319;50.306;18.926;2023-12-20T03:26:55;97815.53;;;4.71;73.13
41624;BME280;27319;50.306;18.926;2023-12-20T03:30:56;97826.09;;;4.61;74.01
41624;BME280;27319;50.306;18.926;2023-12-20T03:34:56;97815.38;;;4.38;76.59
41624;BME280;27319;50.306;18.926;2023-12-20T03:38:57;97818.94;;;4.46;75.68
41624;BME280;27319;50.306;18.926;2023-12-20T03:42:58;97819.66;;;4.43;75.78
41624;BME280;27319;50.306;18.926;2023-12-20T03:46:59;97826.53;;;4.40;76.73
41624;BME280;27319;50.306;18.926;2023-12-20T03:51:00;97831.81;;;4.36;76.57
41624;BME280;27319;50.306;18.926;2023-12-20T03:55:00;97828.25;;;4.52;75.99
41624;BME280;27319;50.306;18.926;2023-12-20T03:59:01;97824.53;;;4.37;76.80
41624;BME280;27319;50.306;18.926;2023-12-20T04:03:02;97815.47;;;4.22;79.41
41624;BME280;27319;50.306;18.926;2023-12-20T04:06:41;97818.75;;;4.12;80.58
41624;BME280;27319;50.306;18.926;2023-12-20T04:10:41;97820.59;;;4.08;80.63
41624;BME280;27319;50.306;18.926;2023-12-20T04:14:42;97825.72;;;3.94;82.19
41624;BME280;27319;50.306;18.926;2023-12-20T04:18:43;97822.53;;;3.88;81.46
41624;BME280;27319;50.306;18.926;2023-12-20T04:22:44;97818.78;;;3.93;81.65
41624;BME280;27319;50.306;18.926;2023-12-20T04:26:45;97826.63;;;3.63;84.13
41624;BME280;27319;50.306;18.926;2023-12-20T04:30:45;97829.50;;;3.93;80.69
41624;BME280;27319;50.306;18.926;2023-12-20T04:34:46;97826.69;;;3.67;82.38
41624;BME280;27319;50.306;18.926;2023-12-20T04:38:47;97821.69;;;3.84;81.98
41624;BME280;27319;50.306;18.926;2023-12-20T04:42:43;97806.66;;;3.99;80.07
41624;BME280;27319;50.306;18.926;2023-12-20T04:46:43;97807.81;;;3.79;81.80
41624;BME280;27319;50.306;18.926;2023-12-20T04:50:44;97814.25;;;3.97;80.53
41624;BME280;27319;50.306;18.926;2023-12-20T04:54:45;97806.38;;;3.85;82.42
41624;BME280;27319;50.306;18.926;2023-12-20T04:58:46;97807.16;;;3.85;81.67
41624;BME280;27319;50.306;18.926;2023-12-20T05:02:47;97801.03;;;3.85;82.36
41624;BME280;27319;50.306;18.926;2023-12-20T05:06:47;97794.03;;;3.80;81.80
41624;BME280;27319;50.306;18.926;2023-12-20T05:10:48;97788.91;;;3.91;80.21
41624;BME280;27319;50.306;18.926;2023-12-20T05:14:49;97791.28;;;3.96;80.55
41624;BME280;27319;50.306;18.926;2023-12-20T05:18:50;97799.78;;;4.02;80.45
41624;BME280;27319;50.306;18.926;2023-12-20T05:22:51;97798.09;;;3.71;82.74
41624;BME280;27319;50.306;18.926;2023-12-20T05:26:52;97798.34;;;3.85;82.83
41624;BME280;27319;50.306;18.926;2023-12-20T05:30:52;97799.41;;;3.80;83.13
41624;BME280;27319;50.306;18.926;2023-12-20T05:34:53;97798.59;;;3.57;83.34
41624;BME280;27319;50.306;18.926;2023-12-20T05:38:54;97792.16;;;3.62;83.26
41624;BME280;27319;50.306;18.926;2023-12-20T05:42:55;97794.28;;;3.72;82.93
41624;BME280;27319;50.306;18.926;2023-12-20T05:46:55;97788.50;;;3.50;84.79
41624;BME280;27319;50.306;18.926;2023-12-20T05:50:57;97789.06;;;3.60;84.23
41624;BME280;27319;50.306;18.926;2023-12-20T05:54:57;97787.22;;;3.83;81.45
41624;BME280;27319;50.306;18.926;2023-12-20T05:58:58;97793.03;;;3.66;83.09
41624;BME280;27319;50.306;18.926;2023-12-20T06:02:59;97799.28;;;3.73;82.62
41624;BME280;27319;50.306;18.926;2023-12-20T06:07:00;97802.31;;;3.72;83.39
41624;BME280;27319;50.306;18.926;2023-12-20T06:11:00;97798.38;;;3.66;82.60
41624;BME280;27319;50.306;18.926;2023-12-20T06:15:02;97799.91;;;3.67;82.82
41624;BME280;27319;50.306;18.926;2023-12-20T06:19:02;97805.00;;;3.52;83.68
41624;BME280;27319;50.306;18.926;2023-12-20T06:23:03;97808.72;;;3.48;84.10
41624;BME280;27319;50.306;18.926;2023-12-20T06:27:04;97807.59;;;3.68;82.48
41624;BME280;27319;50.306;18.926;2023-12-20T06:31:04;97802.34;;;3.52;83.84
41624;BME280;27319;50.306;18.926;2023-12-20T06:34:25;97805.19;;;3.25;85.15
41624;BME280;27319;50.306;18.926;2023-12-20T06:37:26;97813.28;;;3.47;85.02
41624;BME280;27319;50.306;18.926;2023-12-20T06:40:27;97816.13;;;3.35;84.73
41624;BME280;27319;50.306;18.926;2023-12-20T06:43:28;97812.59;;;3.50;83.42
41624;BME280;27319;50.306;18.926;2023-12-20T06:46:29;97822.09;;;3.29;84.83
41624;BME280;27319;50.306;18.926;2023-12-20T06:49:30;97829.22;;;3.40;85.00
41624;BME280;27319;50.306;18.926;2023-12-20T06:52:31;97825.41;;;3.61;82.70
41624;BME280;27319;50.306;18.926;2023-12-20T06:55:36;97818.16;;;3.61;83.18
41624;BME280;27319;50.306;18.926;2023-12-20T06:58:38;97817.25;;;3.34;85.51
41624;BME280;27319;50.306;18.926;2023-12-20T07:01:39;97827.25;;;3.56;83.16
41624;BME280;27319;50.306;18.926;2023-12-20T07:04:41;97830.38;;;3.59;82.79
41624;BME280;27319;50.306;18.926;2023-12-20T07:08:01;97828.88;;;3.61;83.30
41624;BME280;27319;50.306;18.926;2023-12-20T07:12:02;97825.56;;;3.68;83.06
41624;BME280;27319;50.306;18.926;2023-12-20T07:16:03;97825.84;;;3.63;83.69
41624;BME280;27319;50.306;18.926;2023-12-20T07:20:04;97827.66;;;3.39;85.47
41624;BME280;27319;50.306;18.926;2023-12-20T07:24:05;97827.03;;;3.46;85.37
41624;BME280;27319;50.306;18.926;2023-12-20T07:28:06;97838.00;;;3.22;86.57
41624;BME280;27319;50.306;18.926;2023-12-20T07:32:06;97828.53;;;3.43;85.27
41624;BME280;27319;50.306;18.926;2023-12-20T07:36:07;97835.59;;;3.51;84.09
41624;BME280;27319;50.306;18.926;2023-12-20T07:40:08;97837.38;;;3.47;85.03
41624;BME280;27319;50.306;18.926;2023-12-20T07:44:09;97846.13;;;3.44;85.74
41624;BME280;27319;50.306;18.926;2023-12-20T07:48:10;97851.66;;;3.51;85.00
41624;BME280;27319;50.306;18.926;2023-12-20T07:52:10;97850.38;;;3.45;85.95
41624;BME280;27319;50.306;18.926;2023-12-20T07:56:17;97843.88;;;3.46;86.22
41624;BME280;27319;50.306;18.926;2023-12-20T08:00:15;97845.56;;;3.54;85.98
41624;BME280;27319;50.306;18.926;2023-12-20T08:04:15;97839.44;;;3.54;85.06
41624;BME280;27319;50.306;18.926;2023-12-20T08:08:16;97844.88;;;3.38;86.81
41624;BME280;27319;50.306;18.926;2023-12-20T08:12:17;97837.63;;;3.39;86.60
41624;BME280;27319;50.306;18.926;2023-12-20T08:16:18;97843.25;;;3.53;85.89
41624;BME280;27319;50.306;18.926;2023-12-20T08:20:19;97840.06;;;3.47;86.71
41624;BME280;27319;50.306;18.926;2023-12-20T08:24:19;97834.22;;;3.42;87.32
41624;BME280;27319;50.306;18.926;2023-12-20T08:28:20;97836.41;;;3.55;85.46
41624;BME280;27319;50.306;18.926;2023-12-20T08:32:21;97829.94;;;3.37;86.67
41624;BME280;27319;50.306;18.926;2023-12-20T08:36:22;97830.41;;;3.24;87.84
41624;BME280;27319;50.306;18.926;2023-12-20T08:40:23;97824.56;;;3.37;87.55
41624;BME280;27319;50.306;18.926;2023-12-20T08:44:24;97839.56;;;3.42;86.90
41624;BME280;27319;50.306;18.926;2023-12-20T08:48:24;97853.59;;;3.35;87.91
41624;BME280;27319;50.306;18.926;2023-12-20T08:52:25;97848.09;;;3.47;86.44
41624;BME280;27319;50.306;18.926;2023-12-20T08:56:26;97850.00;;;3.47;86.51
41624;BME280;27319;50.306;18.926;2023-12-20T09:00:27;97850.91;;;3.35;86.59
41624;BME280;27319;50.306;18.926;2023-12-20T09:04:28;97859.78;;;3.39;86.83
41624;BME280;27319;50.306;18.926;2023-12-20T09:08:29;97862.81;;;3.38;87.54
41624;BME280;27319;50.306;18.926;2023-12-20T09:12:30;97852.44;;;3.17;88.50
41624;BME280;27319;50.306;18.926;2023-12-20T09:16:30;97848.97;;;3.51;86.10
41624;BME280;27319;50.306;18.926;2023-12-20T09:20:31;97847.25;;;3.43;86.98
41624;BME280;27319;50.306;18.926;2023-12-20T09:24:32;97843.16;;;3.30;88.26
41624;BME280;27319;50.306;18.926;2023-12-20T09:28:33;97844.31;;;3.48;87.37
41624;BME280;27319;50.306;18.926;2023-12-20T09:32:34;97850.09;;;3.50;86.90
41624;BME280;27319;50.306;18.926;2023-12-20T09:36:35;97842.41;;;3.49;86.95
41624;BME280;27319;50.306;18.926;2023-12-20T09:40:35;97833.94;;;3.47;87.73
41624;BME280;27319;50.306;18.926;2023-12-20T09:44:36;97833.94;;;3.47;87.36
41624;BME280;27319;50.306;18.926;2023-12-20T09:48:37;97840.22;;;3.54;87.21
41624;BME280;27319;50.306;18.926;2023-12-20T09:52:38;97832.47;;;3.49;86.97
41624;BME280;27319;50.306;18.926;2023-12-20T09:56:39;97814.22;;;3.55;87.04
41624;BME280;27319;50.306;18.926;2023-12-20T10:00:39;97823.72;;;3.33;88.57
41624;BME280;27319;50.306;18.926;2023-12-20T10:04:42;97819.84;;;3.31;88.80
41624;BME280;27319;50.306;18.926;2023-12-20T10:08:41;97821.97;;;3.41;87.78
41624;BME280;27319;50.306;18.926;2023-12-20T10:12:46;97828.44;;;3.40;88.02
41624;BME280;27319;50.306;18.926;2023-12-20T10:16:46;97824.78;;;3.48;87.93
41624;BME280;27319;50.306;18.926;2023-12-20T10:20:47;97821.81;;;3.53;86.80
41624;BME280;27319;50.306;18.926;2023-12-20T10:24:50;97813.94;;;3.41;88.08
41624;BME280;27319;50.306;18.926;2023-12-20T10:28:55;97823.31;;;3.50;87.88
41624;BME280;27319;50.306;18.926;2023-12-20T10:32:55;97817.81;;;3.43;88.02
41624;BME280;27319;50.306;18.926;2023-12-20T10:36:56;97826.97;;;3.42;88.54
41624;BME280;27319;50.306;18.926;2023-12-20T10:40:57;97820.00;;;3.38;88.65
41624;BME280;27319;50.306;18.926;2023-12-20T10:44:58;97817.47;;;3.45;88.78
41624;BME280;27319;50.306;18.926;2023-12-20T10:48:58;97821.06;;;3.52;88.02
41624;BME280;27319;50.306;18.926;2023-12-20T10:52:59;97822.41;;;3.43;88.71
41624;BME280;27319;50.306;18.926;2023-12-20T10:57:00;97806.69;;;3.61;87.60
41624;BME280;27319;50.306;18.926;2023-12-20T11:01:01;97814.16;;;3.51;88.12
41624;BME280;27319;50.306;18.926;2023-12-20T11:05:25;97809.50;;;3.48;88.69
41624;BME280;27319;50.306;18.926;2023-12-20T11:09:24;97808.81;;;3.51;88.23
41624;BME280;27319;50.306;18.926;2023-12-20T11:13:28;97806.47;;;3.50;88.55
41624;BME280;27319;50.306;18.926;2023-12-20T11:17:28;97800.50;;;3.56;88.78
41624;BME280;27319;50.306;18.926;2023-12-20T11:21:29;97789.91;;;3.64;88.40
41624;BME280;27319;50.306;18.926;2023-12-20T11:25:29;97791.88;;;3.67;87.94
41624;BME280;27319;50.306;18.926;2023-12-20T11:29:52;97783.44;;;3.65;88.04
41624;BME280;27319;50.306;18.926;2023-12-20T11:33:55;97788.00;;;3.64;88.22
41624;BME280;27319;50.306;18.926;2023-12-20T11:37:57;97786.03;;;3.61;88.57
41624;BME280;27319;50.306;18.926;2023-12-20T11:41:56;97798.44;;;3.69;87.90
41624;BME280;27319;50.306;18.926;2023-12-20T11:46:02;97783.16;;;3.70;88.31
41624;BME280;27319;50.306;18.926;2023-12-20T11:49:58;97780.53;;;3.54;88.92
41624;BME280;27319;50.306;18.926;2023-12-20T11:53:59;97779.50;;;3.59;89.24
41624;BME280;27319;50.306;18.926;2023-12-20T11:58:00;97785.97;;;3.58;89.61
41624;BME280;27319;50.306;18.926;2023-12-20T12:02:00;97789.19;;;3.67;88.83
41624;BME280;27319;50.306;18.926;2023-12-20T12:06:01;97769.59;;;3.82;88.30
41624;BME280;27319;50.306;18.926;2023-12-20T12:10:02;97773.25;;;3.93;87.09
41624;BME280;27319;50.306;18.926;2023-12-20T12:14:03;97778.88;;;3.88;87.95
41624;BME280;27319;50.306;18.926;2023-12-20T12:18:04;97777.34;;;3.87;87.70
41624;BME280;27319;50.306;18.926;2023-12-20T12:22:05;97779.00;;;3.95;86.87
41624;BME280;27319;50.306;18.926;2023-12-20T12:26:06;97774.72;;;3.90;87.27
41624;BME280;27319;50.306;18.926;2023-12-20T12:30:22;97770.97;;;3.95;88.04
41624;BME280;27319;50.306;18.926;2023-12-20T12:34:23;97769.28;;;4.06;86.42
41624;BME280;27319;50.306;18.926;2023-12-20T12:38:24;97770.56;;;3.93;88.04
41624;BME280;27319;50.306;18.926;2023-12-20T12:42:24;97764.97;;;4.02;86.91
41624;BME280;27319;50.306;18.926;2023-12-20T12:46:25;97769.16;;;3.99;86.70
41624;BME280;27319;50.306;18.926;2023-12-20T12:50:26;97772.53;;;3.96;86.33
41624;BME280;27319;50.306;18.926;2023-12-20T12:54:27;97773.66;;;3.95;86.50
41624;BME280;27319;50.306;18.926;2023-12-20T12:58:27;97771.41;;;3.97;86.80
41624;BME280;27319;50.306;18.926;2023-12-20T13:02:28;97763.97;;;3.87;86.63
41624;BME280;27319;50.306;18.926;2023-12-20T13:06:29;97752.19;;;3.91;86.95
41624;BME280;27319;50.306;18.926;2023-12-20T13:10:30;97751.69;;;3.86;87.48
41624;BME280;27319;50.306;18.926;2023-12-20T13:14:31;97745.03;;;3.99;86.25
41624;BME280;27319;50.306;18.926;2023-12-20T13:18:31;97760.97;;;3.92;86.54
41624;BME280;27319;50.306;18.926;2023-12-20T13:22:32;97745.97;;;3.87;87.86
41624;BME280;27319;50.306;18.926;2023-12-20T13:26:33;97748.25;;;3.85;87.04
41624;BME280;27319;50.306;18.926;2023-12-20T13:30:34;97743.94;;;3.81;87.22
41624;BME280;27319;50.306;18.926;2023-12-20T13:34:34;97752.69;;;3.78;87.93
41624;BME280;27319;50.306;18.926;2023-12-20T13:38:35;97750.72;;;3.75;87.85
41624;BME280;27319;50.306;18.926;2023-12-20T13:42:36;97760.84;;;3.85;86.71
41624;BME280;27319;50.306;18.926;2023-12-20T13:46:37;97750.50;;;3.83;86.76
41624;BME280;27319;50.306;18.926;2023-12-20T13:50:38;97751.97;;;3.81;86.89
41624;BME280;27319;50.306;18.926;2023-12-20T13:54:38;97759.47;;;3.72;88.49
41624;BME280;27319;50.306;18.926;2023-12-20T13:58:39;97768.16;;;3.88;86.06
41624;BME280;27319;50.306;18.926;2023-12-20T14:02:42;97761.22;;;3.83;86.91
41624;BME280;27319;50.306;18.926;2023-12-20T14:06:43;97757.91;;;3.71;88.01
41624;BME280;27319;50.306;18.926;2023-12-20T14:10:44;97763.19;;;3.67;88.72
41624;BME280;27319;50.306;18.926;2023-12-20T14:14:45;97760.31;;;3.76;87.88
41624;BME280;27319;50.306;18.926;2023-12-20T14:18:46;97765.00;;;3.82;87.25
41624;BME280;27319;50.306;18.926;2023-12-20T14:22:46;97781.84;;;3.83;87.79
41624;BME280;27319;50.306;18.926;2023-12-20T14:26:47;97765.53;;;3.69;87.70
41624;BME280;27319;50.306;18.926;2023-12-20T14:30:48;97764.09;;;3.75;87.46
41624;BME280;27319;50.306;18.926;2023-12-20T14:34:49;97762.72;;;3.62;88.12
41624;BME280;27319;50.306;18.926;2023-12-20T14:38:50;97766.03;;;3.55;87.76
41624;BME280;27319;50.306;18.926;2023-12-20T14:42:50;97763.69;;;3.53;87.43
41624;BME280;27319;50.306;18.926;2023-12-20T14:46:31;97759.97;;;3.58;86.76
41624;BME280;27319;50.306;18.926;2023-12-20T14:50:32;97765.25;;;3.54;86.37
41624;BME280;27319;50.306;18.926;2023-12-20T14:54:33;97755.75;;;3.38;87.83
41624;BME280;27319;50.306;18.926;2023-12-20T14:58:34;97757.84;;;3.48;87.54
41624;BME280;27319;50.306;18.926;2023-12-20T15:02:35;97758.97;;;3.47;87.65
41624;BME280;27319;50.306;18.926;2023-12-20T15:06:36;97756.31;;;3.28;87.65
41624;BME280;27319;50.306;18.926;2023-12-20T15:10:36;97756.31;;;3.28;87.34
41624;BME280;27319;50.306;18.926;2023-12-20T15:14:38;97757.09;;;3.28;87.39
41624;BME280;27319;50.306;18.926;2023-12-20T15:18:18;97754.84;;;3.30;87.02
41624;BME280;27319;50.306;18.926;2023-12-20T15:21:39;97764.00;;;3.29;87.57
41624;BME280;27319;50.306;18.926;2023-12-20T15:25:40;97759.22;;;3.38;86.63
41624;BME280;27319;50.306;18.926;2023-12-20T15:28:40;97748.78;;;3.33;87.11
41624;BME280;27319;50.306;18.926;2023-12-20T15:32:04;97745.31;;;3.33;87.29
41624;BME280;27319;50.306;18.926;2023-12-20T15:35:23;97746.25;;;3.21;88.44
41624;BME280;27319;50.306;18.926;2023-12-20T15:38:24;97739.06;;;3.25;87.74
41624;BME280;27319;50.306;18.926;2023-12-20T15:41:45;97739.91;;;3.29;87.29
41624;BME280;27319;50.306;18.926;2023-12-20T15:45:26;97747.94;;;3.29;87.32
41624;BME280;27319;50.306;18.926;2023-12-20T15:48:27;97743.38;;;3.30;87.33
41624;BME280;27319;50.306;18.926;2023-12-20T15:51:49;97743.41;;;3.33;87.26
41624;BME280;27319;50.306;18.926;2023-12-20T15:55:50;97739.47;;;3.27;87.12
41624;BME280;27319;50.306;18.926;2023-12-20T15:59:54;97751.75;;;3.28;87.13
41624;BME280;27319;50.306;18.926;2023-12-20T16:03:55;97740.41;;;3.15;88.22
41624;BME280;27319;50.306;18.926;2023-12-20T16:07:34;97744.28;;;3.18;88.14
41624;BME280;27319;50.306;18.926;2023-12-20T16:10:34;97749.91;;;3.32;86.72
41624;BME280;27319;50.306;18.926;2023-12-20T16:13:51;97740.19;;;3.24;86.91
41624;BME280;27319;50.306;18.926;2023-12-20T16:17:12;97744.69;;;3.20;87.36
41624;BME280;27319;50.306;18.926;2023-12-20T16:21:13;97733.00;;;3.09;88.19
41624;BME280;27319;50.306;18.926;2023-12-20T16:25:13;97722.59;;;3.04;87.75
41624;BME280;27319;50.306;18.926;2023-12-20T16:28:54;97741.88;;;3.13;86.94
41624;BME280;27319;50.306;18.926;2023-12-20T16:32:15;97736.53;;;3.13;86.43
41624;BME280;27319;50.306;18.926;2023-12-20T16:35:23;97737.13;;;2.87;88.29
41624;BME280;27319;50.306;18.926;2023-12-20T16:38:44;97738.22;;;3.02;87.92
41624;BME280;27319;50.306;18.926;2023-12-20T16:42:45;97735.53;;;3.02;87.07
41624;BME280;27319;50.306;18.926;2023-12-20T16:46:26;97743.00;;;3.12;86.75
41624;BME280;27319;50.306;18.926;2023-12-20T16:49:26;97743.41;;;2.95;88.23
41624;BME280;27319;50.306;18.926;2023-12-20T16:52:27;97740.78;;;2.98;87.68
41624;BME280;27319;50.306;18.926;2023-12-20T16:55:28;97750.63;;;3.10;87.05
41624;BME280;27319;50.306;18.926;2023-12-20T16:58:29;97750.25;;;3.11;86.99
41624;BME280;27319;50.306;18.926;2023-12-20T17:01:30;97742.69;;;2.98;87.66
41624;BME280;27319;50.306;18.926;2023-12-20T17:04:51;97741.47;;;3.11;87.19
41624;BME280;27319;50.306;18.926;2023-12-20T17:08:32;97730.69;;;3.07;86.84
41624;BME280;27319;50.306;18.926;2023-12-20T17:11:53;97730.63;;;3.04;86.45
41624;BME280;27319;50.306;18.926;2023-12-20T17:15:34;97736.13;;;3.11;86.05
41624;BME280;27319;50.306;18.926;2023-12-20T17:18:54;97730.00;;;3.10;86.57
41624;BME280;27319;50.306;18.926;2023-12-20T17:22:35;97722.50;;;3.20;85.99
41624;BME280;27319;50.306;18.926;2023-12-20T17:25:43;97722.09;;;3.17;86.01
41624;BME280;27319;50.306;18.926;2023-12-20T17:29:04;97713.28;;;2.98;86.87
41624;BME280;27319;50.306;18.926;2023-12-20T17:32:45;97720.13;;;3.14;85.75
41624;BME280;27319;50.306;18.926;2023-12-20T17:35:49;97718.50;;;3.10;86.32
41624;BME280;27319;50.306;18.926;2023-12-20T17:39:10;97709.38;;;3.11;86.04
41624;BME280;27319;50.306;18.926;2023-12-20T17:43:11;97708.50;;;3.07;86.98
41624;BME280;27319;50.306;18.926;2023-12-20T17:46:51;97721.31;;;3.17;85.33
41624;BME280;27319;50.306;18.926;2023-12-20T17:49:56;97716.25;;;3.12;86.14
41624;BME280;27319;50.306;18.926;2023-12-20T17:53:17;97718.66;;;3.17;85.31
41624;BME280;27319;50.306;18.926;2023-12-20T17:56:18;97732.28;;;3.12;86.00
41624;BME280;27319;50.306;18.926;2023-12-20T17:59:19;97730.75;;;3.11;85.84
41624;BME280;27319;50.306;18.926;2023-12-20T18:02:20;97738.34;;;3.09;85.35
41624;BME280;27319;50.306;18.926;2023-12-20T18:05:21;97729.34;;;3.17;85.11
41624;BME280;27319;50.306;18.926;2023-12-20T18:08:22;97723.28;;;3.20;84.23
41624;BME280;27319;50.306;18.926;2023-12-20T18:11:24;97710.97;;;3.15;85.39
41624;BME280;27319;50.306;18.926;2023-12-20T18:14:25;97709.75;;;3.13;84.70
41624;BME280;27319;50.306;18.926;2023-12-20T18:17:46;97710.19;;;3.15;84.57
41624;BME280;27319;50.306;18.926;2023-12-20T18:21:47;97707.94;;;3.17;84.88
41624;BME280;27319;50.306;18.926;2023-12-20T18:25:48;97700.31;;;3.19;83.41
41624;BME280;27319;50.306;18.926;2023-12-20T18:29:29;97707.09;;;3.13;84.14
41624;BME280;27319;50.306;18.926;2023-12-20T18:32:29;97708.78;;;3.21;83.24
41624;BME280;27319;50.306;18.926;2023-12-20T18:35:30;97713.34;;;3.21;83.74
41624;BME280;27319;50.306;18.926;2023-12-20T18:38:33;97723.28;;;3.20;83.55
41624;BME280;27319;50.306;18.926;2023-12-20T18:41:34;97721.81;;;3.23;83.56
41624;BME280;27319;50.306;18.926;2023-12-20T18:44:39;97714.97;;;3.25;83.02
41624;BME280;27319;50.306;18.926;2023-12-20T18:48:01;97708.50;;;3.26;83.71
41624;BME280;27319;50.306;18.926;2023-12-20T18:52:01;97690.06;;;3.21;82.91
41624;BME280;27319;50.306;18.926;2023-12-20T18:56:02;97698.84;;;3.22;83.40
41624;BME280;27319;50.306;18.926;2023-12-20T19:00:03;97696.63;;;3.24;82.39
41624;BME280;27319;50.306;18.926;2023-12-20T19:03:44;97701.81;;;3.16;82.96
41624;BME280;27319;50.306;18.926;2023-12-20T19:06:45;97696.03;;;3.14;83.03
41624;BME280;27319;50.306;18.926;2023-12-20T19:09:46;97702.16;;;3.15;82.89
41624;BME280;27319;50.306;18.926;2023-12-20T19:12:47;97707.03;;;3.09;83.62
41624;BME280;27319;50.306;18.926;2023-12-20T19:15:47;97702.50;;;3.13;82.89
41624;BME280;27319;50.306;18.926;2023-12-20T19:19:08;97688.94;;;3.03;83.87
41624;BME280;27319;50.306;18.926;2023-12-20T19:22:49;97697.31;;;3.21;82.47
41624;BME280;27319;50.306;18.926;2023-12-20T19:26:10;97714.91;;;3.22;82.02
41624;BME280;27319;50.306;18.926;2023-12-20T19:30:11;97708.28;;;3.15;81.76
41624;BME280;27319;50.306;18.926;2023-12-20T19:34:11;97698.56;;;3.07;82.67
41624;BME280;27319;50.306;18.926;2023-12-20T19:37:52;97699.50;;;3.15;81.06
41624;BME280;27319;50.306;18.926;2023-12-20T19:40:53;97703.59;;;3.09;81.86
41624;BME280;27319;50.306;18.926;2023-12-20T19:44:10;97696.25;;;3.06;81.96
41624;BME280;27319;50.306;18.926;2023-12-20T19:47:11;97696.53;;;3.01;82.42
41624;BME280;27319;50.306;18.926;2023-12-20T19:50:33;97698.03;;;3.17;80.71
41624;BME280;27319;50.306;18.926;2023-12-20T19:54:34;97697.50;;;2.93;81.77
41624;BME280;27319;50.306;18.926;2023-12-20T19:58:15;97696.59;;;2.85;82.19
41624;BME280;27319;50.306;18.926;2023-12-20T20:01:35;97702.03;;;2.89;82.33
41624;BME280;27319;50.306;18.926;2023-12-20T20:05:36;97707.38;;;2.89;82.40
41624;BME280;27319;50.306;18.926;2023-12-20T20:09:37;97706.75;;;2.95;82.36
41624;BME280;27319;50.306;18.926;2023-12-20T20:13:38;97702.56;;;2.98;81.50